Allendale, Massachusetts
Current Conditions -  °F | °C
As of 10:54 PM on Thursday 27 Nov 2014 (Local Time) from KPSF Reporting Station
Light Snow Light Snow  
Wind Chill: 19°   Ceiling: 1200
Heat Index: 25°   Visibility: 4mi
Dew Point: 23°   Wind: 5mph
Humidity: 92%   Direction: 260°W
Pressure: 29.97"   Gusts: NA
Location:  42.4608°N, 73.282°W
Report Text: KPSF 280354Z AUTO 26004KT 4SM -SN BR BKN012 OVC038 M04/M05 A2997 RMK AO2 SLP164 P0000 T10391050
Loading
Personal Weather Stations






























Interactive Weather Map New forecast layout! Learn more

10-Day Weather Forecast

Advertisements
Track Severe Weather on mobile